Christian Radich — LJLM — position and weather

sailwx.info

Track history (hours):
 
Tides and Currents Weather Stations Pressure Air Temp Water Temp Dewpoint Dewpoint Depression Visibility Wind Speed Wind Dir Waves Ship Positions

Christian Radich (Norway)

Last reported at 2020-Sep-26 07:59 UTC. Time now 2020-Sep-26 08:41 UTC.
Position N 57°56' E 009°04'.

Length 63 m; draft 4.9 m.

Type: Sailing vessel. MMSI: 258373000.

Date/timePositionNaut miles runAvg speedWind from/ knotsBaromVisibWave heightAir tempDewpointWater temp
2020-Sep-26 07:59N 57°56' E 009°04'1 2.7
2020-Sep-26 07:28N 57°56' E 009°01'1 3.1
2020-Sep-26 06:58N 57°56' E 008°58'1 3.1
2020-Sep-26 06:31N 57°56' E 008°56'2 2.3
2020-Sep-26 05:30N 57°56' E 008°51'12 2.3
2020-Sep-26 00:30N 57°56' E 008°30'2 1.8
2020-Sep-25 23:30N 57°56' E 008°26'4 1.3
2020-Sep-25 20:30N 57°56' E 008°19'2 1.6
2020-Sep-25 19:30N 57°57' E 008°16'13 2.6
2020-Sep-25 14:30N 57°57' E 007°52'2 3.0
2020-Sep-25 14:00N 57°57' E 007°49'2 3.7
2020-Sep-25 13:30N 57°56' E 007°46'25 5.1
2020-Sep-25 08:31N 57°55' E 006°58'8 8.4
2020-Sep-25 07:30N 57°58' E 006°43'4 7.7
2020-Sep-25 07:00N 57°59' E 006°36'7 7.5
2020-Sep-25 06:01N 58°02' E 006°23'16 7.7
2020-Sep-25 03:59N 58°11' E 005°59'25 7.3
2020-Sep-25 00:30N 58°25' E 005°19'52 6.9
2020-Sep-24 17:00N 58°59' E 004°02'8 8.4
2020-Sep-24 16:00N 59°05' E 003°52'5 8.7
2020-Sep-24 15:28N 59°09' E 003°48'13 7.5
2020-Sep-24 13:42N 59°23' E 003°45'37 6.0
2020-Sep-24 07:30N 59°60' E 003°50'7 6.8
2020-Sep-24 06:30N 60°07' E 003°49'7 7.1
2020-Sep-24 05:30N 60°14' E 003°48'15 5.9
2020-Sep-24 03:00N 60°28' E 003°55'3 5.4
2020-Sep-24 02:30N 60°31' E 003°56'3 6.1
2020-Sep-24 01:59N 60°34' E 003°57'31 6.8
2020-Sep-23 21:29N 61°04' E 004°04'10 6.6
2020-Sep-23 20:00N 61°14' E 004°05'4 6.2
2020-Sep-23 19:25N 61°18' E 004°05'0 5.2
2020-Sep-23 19:24N 61°18' E 004°05'3 7.3
2020-Sep-23 19:00N 61°21' E 004°05'28 7.0
2020-Sep-23 15:00N 61°49' E 004°12'7 6.7
2020-Sep-23 14:00N 61°54' E 004°20'13 6.6
2020-Sep-23 12:00N 62°03' E 004°40'6 6.5
2020-Sep-23 11:00N 62°08' E 004°50'3 5.8
2020-Sep-23 10:30N 62°10' E 004°54'36 4.3
2020-Sep-23 02:00N 62°21' E 006°08'18 5.6
2020-Sep-22 22:47N 62°27' E 006°45'21 3.3
2020-Sep-22 16:30N 62°07' E 006°57'3 5.1
2020-Sep-22 16:00N 62°09' E 006°60'3 5.1
2020-Sep-22 15:30N 62°12' E 007°02'19 5.5
2020-Sep-22 11:58N 62°26' E 006°32'7 6.9
2020-Sep-22 10:59N 62°24' E 006°18'5 5.5
2020-Sep-22 09:59N 62°23' E 006°06'3 5.5
2020-Sep-22 09:30N 62°26' E 006°02'5 3.1
2020-Sep-22 08:01N 62°29' E 006°09'2 4.4
2020-Sep-22 07:30N 62°31' E 006°09'3 5.4
2020-Sep-22 07:00N 62°34' E 006°11'13 6.6
2020-Sep-22 05:00N 62°44' E 006°30'8 7.7
2020-Sep-22 04:00N 62°50' E 006°40'4 7.4
2020-Sep-22 03:27N 62°53' E 006°44'27 6.1
2020-Sep-21 23:01N 63°07' E 007°36'6 6.3
2020-Sep-21 22:00N 63°11' E 007°47'3 6.8
2020-Sep-21 21:30N 63°13' E 007°54'7 6.5
2020-Sep-21 20:30N 63°16' E 008°06'19 6.5
2020-Sep-21 17:30N 63°26' E 008°43'10 6.7
2020-Sep-21 16:00N 63°28' E 009°05'10 5.1
2020-Sep-21 13:56N 63°18' E 009°06'0 0.0
2020-Sep-21 10:28N 63°18' E 009°06'0 0.0
2020-Sep-21 08:30N 63°18' E 009°06'0 0.0
2020-Sep-21 07:30N 63°18' E 009°06'0 0.0
2020-Sep-21 05:26N 63°18' E 009°06'0 0.0
2020-Sep-21 01:23N 63°18' E 009°06'0 0.0
2020-Sep-21 00:23N 63°18' E 009°06'0 0.0
2020-Sep-20 23:30N 63°18' E 009°06'12 3.1
2020-Sep-20 19:30N 63°30' E 009°06'2 4.5
2020-Sep-20 19:00N 63°31' E 009°10'7 6.9
2020-Sep-20 18:00N 63°35' E 009°24'4 7.4
2020-Sep-20 17:31N 63°37' E 009°28'4 8.3
2020-Sep-20 17:00N 63°42' E 009°30'4 7.4
2020-Sep-20 16:30N 63°45' E 009°32'3 6.6
2020-Sep-20 15:59N 63°48' E 009°35'9 6.3
2020-Sep-20 14:30N 63°56' E 009°48'12 5.8
2020-Sep-20 12:30N 64°06' E 009°60'3 6.4
2020-Sep-20 12:00N 64°08' E 010°05'3 6.5
2020-Sep-20 11:30N 64°11' E 010°09'7 6.2
2020-Sep-20 10:26N 64°16' E 010°19'12 6.0
2020-Sep-20 08:30N 64°27' E 010°27'8 5.2
2020-Sep-20 07:00N 64°34' E 010°36'4 4.0
2020-Sep-20 06:00N 64°37' E 010°41'20 3.4
2020-Sep-20 00:00N 64°51' E 011°14'24 6.9
2020-Sep-19 20:30N 65°10' E 011°51'11 7.1
2020-Sep-19 19:00N 65°19' E 012°01'10 6.7
2020-Sep-19 17:30N 65°29' E 011°60'8 7.6
2020-Sep-19 16:28N 65°36' E 012°10'19 7.9
2020-Sep-19 14:00N 65°55' E 012°22'9 3.1
2020-Sep-19 11:00N 66°01' E 012°38'3 2.9
2020-Sep-19 10:00N 66°04' E 012°39'8 3.3
2020-Sep-19 07:26N 66°11' E 012°51'2 3.6
2020-Sep-19 07:00N 66°13' E 012°52'5 2.6
2020-Sep-19 05:00N 66°18' E 012°56'2 3.3
2020-Sep-19 04:29N 66°20' E 012°57'7 3.3
2020-Sep-19 02:30N 66°26' E 012°59'3 2.8
2020-Sep-19 01:30N 66°29' E 012°59'5 2.3
2020-Sep-18 23:30N 66°33' E 013°03'4 3.8
2020-Sep-18 22:30N 66°37' E 013°04'9 3.4
2020-Sep-18 20:00N 66°45' E 013°12'3 3.2
2020-Sep-18 19:00N 66°48' E 013°16'6 5.7
2020-Sep-18 18:00N 66°53' E 013°23'13 4.5
2020-Sep-18 15:00N 67°02' E 013°48'9 5.9
2020-Sep-18 13:30N 67°09' E 014°02'2 0.5
2020-Sep-18 10:29N 67°09' E 014°06'0 0.0
2020-Sep-18 07:28N 67°09' E 014°06'0 0.0
2020-Sep-18 06:59N 67°09' E 014°06'0 0.0
2020-Sep-18 05:00N 67°09' E 014°06'0 0.0
2020-Sep-18 02:58N 67°09' E 014°06'0 0.0
2020-Sep-18 01:29N 67°09' E 014°06'0 0.0
2020-Sep-18 01:00N 67°09' E 014°06'0 0.0
2020-Sep-17 19:30N 67°09' E 014°06'0 0.0
2020-Sep-17 16:59N 67°09' E 014°06'0 0.0
2020-Sep-17 15:30N 67°09' E 014°06'2 2.0
2020-Sep-17 14:30N 67°11' E 014°09'12 4.7
2020-Sep-17 12:01N 67°21' E 014°25'1 0.2
2020-Sep-17 08:00N 67°21' E 014°23'2 4.5
2020-Sep-17 07:30N 67°23' E 014°25'2 3.7
2020-Sep-17 07:00N 67°25' E 014°28'2 4.7
2020-Sep-17 06:30N 67°27' E 014°28'17 5.6
2020-Sep-17 03:30N 67°43' E 014°16'3 5.5
2020-Sep-17 03:00N 67°46' E 014°17'7 4.8
2020-Sep-17 01:30N 67°52' E 014°27'3 5.6
2020-Sep-17 01:00N 67°54' E 014°33'3 5.5
2020-Sep-17 00:30N 67°55' E 014°38'3 5.8
2020-Sep-17 00:00N 67°57' E 014°45'25 7.1
2020-Sep-16 20:30N 68°13' E 015°36'18 9.0
2020-Sep-16 18:30N 68°27' E 016°05'5 9.4
2020-Sep-16 18:00N 68°31' E 016°10'8 8.2
2020-Sep-16 17:00N 68°34' E 016°32'4 8.7
2020-Sep-16 16:30N 68°38' E 016°36'39 8.6
2020-Sep-16 12:00N 69°08' E 017°44'  
Track history (hours):
 
Tides and Currents Weather Stations Pressure Air Temp Water Temp Dewpoint Dewpoint Depression Visibility Wind Speed Wind Dir Waves Ship Positions

Christian Radich (Norway)

Last reported at 2020-Sep-26 07:59 UTC. Time now 2020-Sep-26 08:41 UTC.
Position N 57°56' E 009°04'.

Length 63 m; draft 4.9 m.

Type: Sailing vessel. MMSI: 258373000.

Date/timePositionNaut miles runAvg speedWind from/ knotsBaromVisibWave heightAir tempDewpointWater temp
2020-Sep-26 07:59N 57°56' E 009°04'1 2.7
2020-Sep-26 07:28N 57°56' E 009°01'1 3.1
2020-Sep-26 06:58N 57°56' E 008°58'1 3.1
2020-Sep-26 06:31N 57°56' E 008°56'2 2.3
2020-Sep-26 05:30N 57°56' E 008°51'12 2.3
2020-Sep-26 00:30N 57°56' E 008°30'2 1.8
2020-Sep-25 23:30N 57°56' E 008°26'4 1.3
2020-Sep-25 20:30N 57°56' E 008°19'2 1.6
2020-Sep-25 19:30N 57°57' E 008°16'13 2.6
2020-Sep-25 14:30N 57°57' E 007°52'2 3.0
2020-Sep-25 14:00N 57°57' E 007°49'2 3.7
2020-Sep-25 13:30N 57°56' E 007°46'25 5.1
2020-Sep-25 08:31N 57°55' E 006°58'8 8.4
2020-Sep-25 07:30N 57°58' E 006°43'4 7.7
2020-Sep-25 07:00N 57°59' E 006°36'7 7.5
2020-Sep-25 06:01N 58°02' E 006°23'16 7.7
2020-Sep-25 03:59N 58°11' E 005°59'25 7.3
2020-Sep-25 00:30N 58°25' E 005°19'52 6.9
2020-Sep-24 17:00N 58°59' E 004°02'8 8.4
2020-Sep-24 16:00N 59°05' E 003°52'5 8.7
2020-Sep-24 15:28N 59°09' E 003°48'13 7.5
2020-Sep-24 13:42N 59°23' E 003°45'37 6.0
2020-Sep-24 07:30N 59°60' E 003°50'7 6.8
2020-Sep-24 06:30N 60°07' E 003°49'7 7.1
2020-Sep-24 05:30N 60°14' E 003°48'15 5.9
2020-Sep-24 03:00N 60°28' E 003°55'3 5.4
2020-Sep-24 02:30N 60°31' E 003°56'3 6.1
2020-Sep-24 01:59N 60°34' E 003°57'31 6.8
2020-Sep-23 21:29N 61°04' E 004°04'10 6.6
2020-Sep-23 20:00N 61°14' E 004°05'4 6.2
2020-Sep-23 19:25N 61°18' E 004°05'0 5.2
2020-Sep-23 19:24N 61°18' E 004°05'3 7.3
2020-Sep-23 19:00N 61°21' E 004°05'28 7.0
2020-Sep-23 15:00N 61°49' E 004°12'7 6.7
2020-Sep-23 14:00N 61°54' E 004°20'13 6.6
2020-Sep-23 12:00N 62°03' E 004°40'6 6.5
2020-Sep-23 11:00N 62°08' E 004°50'3 5.8
2020-Sep-23 10:30N 62°10' E 004°54'36 4.3
2020-Sep-23 02:00N 62°21' E 006°08'18 5.6
2020-Sep-22 22:47N 62°27' E 006°45'21 3.3
2020-Sep-22 16:30N 62°07' E 006°57'3 5.1
2020-Sep-22 16:00N 62°09' E 006°60'3 5.1
2020-Sep-22 15:30N 62°12' E 007°02'19 5.5
2020-Sep-22 11:58N 62°26' E 006°32'7 6.9
2020-Sep-22 10:59N 62°24' E 006°18'5 5.5
2020-Sep-22 09:59N 62°23' E 006°06'3 5.5
2020-Sep-22 09:30N 62°26' E 006°02'5 3.1
2020-Sep-22 08:01N 62°29' E 006°09'2 4.4
2020-Sep-22 07:30N 62°31' E 006°09'3 5.4
2020-Sep-22 07:00N 62°34' E 006°11'13 6.6
2020-Sep-22 05:00N 62°44' E 006°30'8 7.7
2020-Sep-22 04:00N 62°50' E 006°40'4 7.4
2020-Sep-22 03:27N 62°53' E 006°44'27 6.1
2020-Sep-21 23:01N 63°07' E 007°36'6 6.3
2020-Sep-21 22:00N 63°11' E 007°47'3 6.8
2020-Sep-21 21:30N 63°13' E 007°54'7 6.5
2020-Sep-21 20:30N 63°16' E 008°06'19 6.5
2020-Sep-21 17:30N 63°26' E 008°43'10 6.7
2020-Sep-21 16:00N 63°28' E 009°05'10 5.1
2020-Sep-21 13:56N 63°18' E 009°06'0 0.0
2020-Sep-21 10:28N 63°18' E 009°06'0 0.0
2020-Sep-21 08:30N 63°18' E 009°06'0 0.0
2020-Sep-21 07:30N 63°18' E 009°06'0 0.0
2020-Sep-21 05:26N 63°18' E 009°06'0 0.0
2020-Sep-21 01:23N 63°18' E 009°06'0 0.0
2020-Sep-21 00:23N 63°18' E 009°06'0 0.0
2020-Sep-20 23:30N 63°18' E 009°06'12 3.1
2020-Sep-20 19:30N 63°30' E 009°06'2 4.5
2020-Sep-20 19:00N 63°31' E 009°10'7 6.9
2020-Sep-20 18:00N 63°35' E 009°24'4 7.4
2020-Sep-20 17:31N 63°37' E 009°28'4 8.3
2020-Sep-20 17:00N 63°42' E 009°30'4 7.4
2020-Sep-20 16:30N 63°45' E 009°32'3 6.6
2020-Sep-20 15:59N 63°48' E 009°35'9 6.3
2020-Sep-20 14:30N 63°56' E 009°48'12 5.8
2020-Sep-20 12:30N 64°06' E 009°60'3 6.4
2020-Sep-20 12:00N 64°08' E 010°05'3 6.5
2020-Sep-20 11:30N 64°11' E 010°09'7 6.2
2020-Sep-20 10:26N 64°16' E 010°19'12 6.0
2020-Sep-20 08:30N 64°27' E 010°27'8 5.2
2020-Sep-20 07:00N 64°34' E 010°36'4 4.0
2020-Sep-20 06:00N 64°37' E 010°41'20 3.4
2020-Sep-20 00:00N 64°51' E 011°14'24 6.9
2020-Sep-19 20:30N 65°10' E 011°51'11 7.1
2020-Sep-19 19:00N 65°19' E 012°01'10 6.7
2020-Sep-19 17:30N 65°29' E 011°60'8 7.6
2020-Sep-19 16:28N 65°36' E 012°10'19 7.9
2020-Sep-19 14:00N 65°55' E 012°22'9 3.1
2020-Sep-19 11:00N 66°01' E 012°38'3 2.9
2020-Sep-19 10:00N 66°04' E 012°39'8 3.3
2020-Sep-19 07:26N 66°11' E 012°51'2 3.6
2020-Sep-19 07:00N 66°13' E 012°52'5 2.6
2020-Sep-19 05:00N 66°18' E 012°56'2 3.3
2020-Sep-19 04:29N 66°20' E 012°57'7 3.3
2020-Sep-19 02:30N 66°26' E 012°59'3 2.8
2020-Sep-19 01:30N 66°29' E 012°59'5 2.3
2020-Sep-18 23:30N 66°33' E 013°03'4 3.8
2020-Sep-18 22:30N 66°37' E 013°04'9 3.4
2020-Sep-18 20:00N 66°45' E 013°12'3 3.2
2020-Sep-18 19:00N 66°48' E 013°16'6 5.7
2020-Sep-18 18:00N 66°53' E 013°23'13 4.5
2020-Sep-18 15:00N 67°02' E 013°48'9 5.9
2020-Sep-18 13:30N 67°09' E 014°02'2 0.5
2020-Sep-18 10:29N 67°09' E 014°06'0 0.0
2020-Sep-18 07:28N 67°09' E 014°06'0 0.0
2020-Sep-18 06:59N 67°09' E 014°06'0 0.0
2020-Sep-18 05:00N 67°09' E 014°06'0 0.0
2020-Sep-18 02:58N 67°09' E 014°06'0 0.0
2020-Sep-18 01:29N 67°09' E 014°06'0 0.0
2020-Sep-18 01:00N 67°09' E 014°06'0 0.0
2020-Sep-17 19:30N 67°09' E 014°06'0 0.0
2020-Sep-17 16:59N 67°09' E 014°06'0 0.0
2020-Sep-17 15:30N 67°09' E 014°06'2 2.0
2020-Sep-17 14:30N 67°11' E 014°09'12 4.7
2020-Sep-17 12:01N 67°21' E 014°25'1 0.2
2020-Sep-17 08:00N 67°21' E 014°23'2 4.5
2020-Sep-17 07:30N 67°23' E 014°25'2 3.7
2020-Sep-17 07:00N 67°25' E 014°28'2 4.7
2020-Sep-17 06:30N 67°27' E 014°28'17 5.6
2020-Sep-17 03:30N 67°43' E 014°16'3 5.5
2020-Sep-17 03:00N 67°46' E 014°17'7 4.8
2020-Sep-17 01:30N 67°52' E 014°27'3 5.6
2020-Sep-17 01:00N 67°54' E 014°33'3 5.5
2020-Sep-17 00:30N 67°55' E 014°38'3 5.8
2020-Sep-17 00:00N 67°57' E 014°45'25 7.1
2020-Sep-16 20:30N 68°13' E 015°36'18 9.0
2020-Sep-16 18:30N 68°27' E 016°05'5 9.4
2020-Sep-16 18:00N 68°31' E 016°10'8 8.2
2020-Sep-16 17:00N 68°34' E 016°32'4 8.7
2020-Sep-16 16:30N 68°38' E 016°36'39 8.6
2020-Sep-16 12:00N 69°08' E 017°44'  

Dump ship's entire track history